createdAt,value
2023-02-02T00:00:47.111Z,98477.19
2023-02-02T00:03:14.920Z,98471.84
2023-02-02T00:05:49.815Z,98482.56
2023-02-02T00:08:21.356Z,98486.28
2023-02-02T00:10:48.436Z,98486.50
2023-02-02T00:13:15.759Z,98486.28
2023-02-02T00:15:43.389Z,98484.66
2023-02-02T00:18:10.349Z,98493.09
2023-02-02T00:20:39.139Z,98497.00
2023-02-02T00:23:06.804Z,98501.75
2023-02-02T00:25:35.110Z,98502.16
2023-02-02T00:28:27.184Z,98508.16
2023-02-02T00:30:54.953Z,98496.78
2023-02-02T00:33:22.325Z,98497.56
2023-02-02T00:35:51.752Z,98493.63
2023-02-02T00:38:19.419Z,98489.25
2023-02-02T00:40:46.798Z,98490.50
2023-02-02T00:43:13.794Z,98498.13
2023-02-02T00:45:41.516Z,98494.41
2023-02-02T00:48:11.279Z,98473.09
2023-02-02T00:50:38.659Z,98477.19
2023-02-02T00:53:06.052Z,98485.66
2023-02-02T00:55:33.447Z,98481.09
2023-02-02T00:58:00.619Z,98480.88
2023-02-02T01:00:28.937Z,98484.78
2023-02-02T01:02:57.416Z,98486.25
2023-02-02T01:05:25.197Z,98488.72
2023-02-02T01:07:54.840Z,98479.59
2023-02-02T01:10:22.298Z,98478.56
2023-02-02T01:12:54.692Z,98483.34
2023-02-02T01:15:28.993Z,98495.28
2023-02-02T01:17:58.481Z,98487.22
2023-02-02T01:20:33.878Z,98481.84
2023-02-02T01:23:03.319Z,98505.59
2023-02-02T01:25:32.599Z,98515.31
2023-02-02T01:28:02.443Z,98525.62
2023-02-02T01:30:29.834Z,98532.06
2023-02-02T01:32:57.167Z,98554.38
2023-02-02T01:35:24.708Z,98556.84
2023-02-02T01:37:51.866Z,98571.94
2023-02-02T01:40:19.786Z,98572.75
2023-02-02T01:42:47.439Z,98593.44
2023-02-02T01:45:29.377Z,98615.78
2023-02-02T01:48:01.802Z,98615.78
2023-02-02T01:50:35.903Z,98606.66
2023-02-02T01:53:06.578Z,98603.78
2023-02-02T01:55:36.415Z,98652.37
2023-02-02T01:58:12.213Z,98637.47
2023-02-02T02:00:41.359Z,98635.59
2023-02-02T02:03:15.457Z,98636.41
2023-02-02T02:05:46.929Z,98637.88
2023-02-02T02:08:19.809Z,98642.66
2023-02-02T02:10:46.924Z,98646.38
2023-02-02T02:13:14.785Z,98636.87
2023-02-02T02:16:21.811Z,98632.16
2023-02-02T02:19:33.679Z,98640.66
2023-02-02T02:23:00.891Z,98655.34
2023-02-02T02:26:08.375Z,98655.56
2023-02-02T02:28:44.649Z,98660.97
2023-02-02T02:31:43.966Z,98669.66
2023-02-02T02:34:21.832Z,98676.91
2023-02-02T02:36:56.901Z,98668.44
2023-02-02T02:39:49.166Z,98674.00
2023-02-02T02:42:22.209Z,98668.25
2023-02-02T02:44:52.911Z,98663.28
2023-02-02T02:47:21.733Z,98664.97
2023-02-02T02:49:50.174Z,98661.84
2023-02-02T02:52:17.522Z,98668.44
2023-02-02T02:54:50.296Z,98649.25
2023-02-02T02:57:35.774Z,98643.47
2023-02-02T03:00:13.208Z,98644.31
2023-02-02T03:02:58.818Z,98643.06
2023-02-02T03:05:45.423Z,98636.06
2023-02-02T03:08:23.078Z,98639.97
2023-02-02T03:10:52.529Z,98640.19
2023-02-02T03:13:20.404Z,98648.25
2023-02-02T03:15:48.008Z,98649.91
2023-02-02T03:18:20.653Z,98651.13
2023-02-02T03:20:47.855Z,98656.50
2023-02-02T03:23:15.453Z,98659.37
2023-02-02T03:25:43.441Z,98668.25
2023-02-02T03:28:10.610Z,98664.34
2023-02-02T03:30:40.270Z,98682.09
2023-02-02T03:33:10.202Z,98650.50
2023-02-02T03:35:37.628Z,98687.69
2023-02-02T03:38:04.951Z,98680.03
2023-02-02T03:40:34.561Z,98659.37
2023-02-02T03:43:01.532Z,98643.50
2023-02-02T03:45:37.727Z,98643.06
2023-02-02T03:48:12.317Z,98634.41
2023-02-02T03:50:44.731Z,98633.78
2023-02-02T03:53:20.038Z,98628.37
2023-02-02T03:55:50.622Z,98622.19
2023-02-02T03:58:22.501Z,98641.19
2023-02-02T04:00:52.903Z,98613.94
2023-02-02T04:03:20.508Z,98603.19
2023-02-02T04:05:51.311Z,98589.94
2023-02-02T04:09:09.420Z,98597.19
2023-02-02T04:11:38.480Z,98614.31
2023-02-02T04:14:07.214Z,98631.25
2023-02-02T04:16:37.549Z,98625.50
2023-02-02T04:19:05.166Z,98611.25
2023-02-02T04:21:32.259Z,98616.63
2023-02-02T04:24:00.036Z,98620.34
2023-02-02T04:26:27.519Z,98613.94
2023-02-02T04:28:54.888Z,98612.91
2023-02-02T04:31:22.245Z,98612.91
2023-02-02T04:33:49.541Z,98606.94
2023-02-02T04:36:16.840Z,98602.38
2023-02-02T04:38:44.156Z,98596.81
2023-02-02T04:41:15.185Z,98592.09
2023-02-02T04:43:42.441Z,98586.72
2023-02-02T04:46:09.730Z,98592.47
2023-02-02T04:48:37.210Z,98594.12
2023-02-02T04:51:06.621Z,98591.47
2023-02-02T04:53:34.315Z,98599.09
2023-02-02T04:56:08.490Z,98585.88
2023-02-02T04:58:36.515Z,98608.19
2023-02-02T05:01:10.171Z,98609.44
2023-02-02T05:03:38.833Z,98613.75
2023-02-02T05:06:07.372Z,98602.59
2023-02-02T05:08:35.967Z,98621.41
2023-02-02T05:11:11.200Z,98631.09
2023-02-02T05:13:38.867Z,98642.88
2023-02-02T05:16:07.172Z,98643.06
2023-02-02T05:18:34.461Z,98643.69
2023-02-02T05:21:02.851Z,98642.44
2023-02-02T05:23:31.229Z,98635.03
2023-02-02T05:25:58.219Z,98630.28
2023-02-02T05:28:25.740Z,98635.44
2023-02-02T05:30:53.494Z,98647.00
2023-02-02T05:33:21.092Z,98646.59
2023-02-02T05:35:49.029Z,98646.38
2023-02-02T05:38:16.954Z,98650.09
2023-02-02T05:40:44.205Z,98644.94
2023-02-02T05:43:11.453Z,98643.50
2023-02-02T05:45:39.135Z,98652.56
2023-02-02T05:48:06.602Z,98654.81
2023-02-02T05:50:33.990Z,98665.78
2023-02-02T05:53:01.258Z,98671.56
2023-02-02T05:55:28.148Z,98674.47
2023-02-02T05:57:55.464Z,98680.44
2023-02-02T06:00:23.452Z,98674.25
2023-02-02T06:02:50.697Z,98676.13
2023-02-02T06:05:17.893Z,98670.13
2023-02-02T06:07:45.145Z,98668.47
2023-02-02T06:10:12.660Z,98680.84
2023-02-02T06:12:39.903Z,98694.88
2023-02-02T06:15:07.761Z,98690.97
2023-02-02T06:17:35.281Z,98682.09
2023-02-02T06:20:02.483Z,98694.25
2023-02-02T06:22:31.931Z,98676.31
2023-02-02T06:24:59.006Z,98685.62
2023-02-02T06:27:25.878Z,98687.47
2023-02-02T06:29:53.435Z,98692.84
2023-02-02T06:32:21.590Z,98702.75
2023-02-02T06:34:48.796Z,98703.16
2023-02-02T06:37:15.995Z,98695.75
2023-02-02T06:39:43.248Z,98694.09
2023-02-02T06:42:20.746Z,98690.16
2023-02-02T06:44:49.489Z,98698.22
2023-02-02T06:47:35.351Z,98709.38
2023-02-02T06:50:02.945Z,98736.37
2023-02-02T06:52:29.942Z,98723.62
2023-02-02T06:54:57.171Z,98733.13
2023-02-02T06:57:24.379Z,98752.31
2023-02-02T06:59:52.383Z,98753.31
2023-02-02T07:02:19.843Z,98749.81
2023-02-02T07:04:47.152Z,98758.47
2023-02-02T07:07:14.097Z,98759.72
2023-02-02T07:09:41.383Z,98757.69
2023-02-02T07:12:09.305Z,98762.19
2023-02-02T07:14:36.508Z,98764.06
2023-02-02T07:17:03.585Z,98767.56
2023-02-02T07:19:31.202Z,98766.75
2023-02-02T07:21:58.182Z,98768.44
2023-02-02T07:24:25.130Z,98785.53
2023-02-02T07:26:52.757Z,98774.78
2023-02-02T07:29:20.053Z,98769.62
2023-02-02T07:31:47.129Z,98768.81
2023-02-02T07:34:14.826Z,98768.22
2023-02-02T07:36:42.162Z,98777.47
2023-02-02T07:39:09.415Z,98769.84
2023-02-02T07:41:37.219Z,98776.84
2023-02-02T07:44:06.006Z,98782.44
2023-02-02T07:46:33.181Z,98774.37
2023-02-02T07:49:00.461Z,98775.19
2023-02-02T07:51:27.792Z,98768.81
2023-02-02T07:53:58.880Z,98763.44
2023-02-02T07:56:28.673Z,98761.78
2023-02-02T07:58:57.237Z,98771.06
2023-02-02T08:01:26.644Z,98775.59
2023-02-02T08:03:55.569Z,98775.41
2023-02-02T08:06:26.111Z,98779.75
2023-02-02T08:08:53.699Z,98779.75
2023-02-02T08:11:22.717Z,98788.63
2023-02-02T08:13:52.588Z,98791.91
2023-02-02T08:16:20.673Z,98795.22
2023-02-02T08:18:48.315Z,98794.59
2023-02-02T08:21:16.882Z,98798.13
2023-02-02T08:23:44.911Z,98801.00
2023-02-02T08:26:18.344Z,98796.47
2023-02-02T08:28:48.614Z,98797.09
2023-02-02T08:31:17.257Z,98799.78
2023-02-02T08:33:44.292Z,98798.53
2023-02-02T08:36:17.473Z,98798.75
2023-02-02T08:38:45.684Z,98805.56
2023-02-02T08:41:16.899Z,98812.56
2023-02-02T08:43:44.562Z,98814.22
2023-02-02T08:46:14.697Z,98817.53
2023-02-02T08:48:42.919Z,98816.50
2023-02-02T08:51:16.204Z,98819.59
2023-02-02T08:53:47.219Z,98816.53
2023-02-02T08:56:16.582Z,98824.38
2023-02-02T08:58:48.602Z,98825.84
2023-02-02T09:01:19.272Z,98834.50
2023-02-02T09:03:47.038Z,98834.31
2023-02-02T09:06:17.842Z,98837.63
2023-02-02T09:08:45.497Z,98841.94
2023-02-02T09:11:18.385Z,98839.88
2023-02-02T09:13:47.586Z,98833.28
2023-02-02T09:16:17.620Z,98837.63
2023-02-02T09:18:45.253Z,98839.91
2023-02-02T09:21:16.507Z,98837.84
2023-02-02T09:23:45.175Z,98838.28
2023-02-02T09:26:14.673Z,98831.66
2023-02-02T09:28:45.177Z,98847.38
2023-02-02T09:31:12.976Z,98843.22
2023-02-02T09:33:40.433Z,98856.03
2023-02-02T09:36:09.853Z,98851.09
2023-02-02T09:38:38.029Z,98856.06
2023-02-02T09:41:37.362Z,98852.75
2023-02-02T09:44:23.299Z,98855.66
2023-02-02T09:47:00.228Z,98863.09
2023-02-02T09:49:39.937Z,98859.78
2023-02-02T09:52:22.568Z,98861.88
2023-02-02T09:54:52.394Z,98855.06
2023-02-02T09:57:24.279Z,98858.75
2023-02-02T09:59:54.226Z,98855.66
2023-02-02T10:02:27.393Z,98859.59
2023-02-02T10:05:08.223Z,98849.44
2023-02-02T10:07:41.963Z,98862.06
2023-02-02T10:10:24.684Z,98857.09
2023-02-02T10:13:03.339Z,98859.16
2023-02-02T10:15:51.749Z,98861.00
2023-02-02T10:18:45.465Z,98857.91
2023-02-02T10:21:43.233Z,98869.06
2023-02-02T10:24:23.066Z,98864.72
2023-02-02T10:27:06.154Z,98865.97
2023-02-02T10:29:50.307Z,98861.81
2023-02-02T10:32:41.330Z,98860.34
2023-02-02T10:35:17.644Z,98860.53
2023-02-02T10:37:51.423Z,98863.44
2023-02-02T10:40:46.200Z,98875.44
2023-02-02T10:43:46.600Z,98875.00
2023-02-02T10:46:41.673Z,98868.97
2023-02-02T10:49:39.665Z,98869.38
2023-02-02T10:52:26.821Z,98859.00
2023-02-02T10:54:58.558Z,98851.97
2023-02-02T10:57:44.617Z,98850.28
2023-02-02T11:00:28.908Z,98856.06
2023-02-02T11:02:56.893Z,98855.63
2023-02-02T11:05:44.540Z,98853.34
2023-02-02T11:08:15.763Z,98842.16
2023-02-02T11:10:45.008Z,98836.38
2023-02-02T11:13:23.690Z,98845.06
2023-02-02T11:15:50.791Z,98849.81
2023-02-02T11:18:30.583Z,98845.84
2023-02-02T11:20:58.283Z,98847.28
2023-02-02T11:23:28.548Z,98842.50
2023-02-02T11:26:10.619Z,98843.13
2023-02-02T11:28:40.566Z,98852.63
2023-02-02T11:31:08.408Z,98850.53
2023-02-02T11:33:36.714Z,98842.47
2023-02-02T11:36:20.352Z,98853.66
2023-02-02T11:38:47.786Z,98849.09
2023-02-02T11:41:15.846Z,98832.72
2023-02-02T11:43:51.095Z,98839.53
2023-02-02T11:46:24.888Z,98833.09
2023-02-02T11:49:04.210Z,98829.38
2023-02-02T11:51:33.066Z,98832.06
2023-02-02T11:54:17.104Z,98832.66
2023-02-02T11:56:51.302Z,98834.31
2023-02-02T11:59:39.099Z,98832.22
2023-02-02T12:02:26.381Z,98825.78
2023-02-02T12:05:13.567Z,98839.03
2023-02-02T12:07:43.835Z,98828.06
2023-02-02T12:10:20.054Z,98829.69
2023-02-02T12:13:00.777Z,98831.34
2023-02-02T12:15:49.333Z,98822.22
2023-02-02T12:18:49.909Z,98830.09
2023-02-02T12:21:26.302Z,98816.41
2023-02-02T12:24:20.783Z,98815.38
2023-02-02T12:27:03.231Z,98822.19
2023-02-02T12:29:33.297Z,98827.37
2023-02-02T12:32:12.660Z,98821.97
2023-02-02T12:34:46.168Z,98821.75
2023-02-02T12:37:19.986Z,98816.38
2023-02-02T12:40:03.657Z,98819.87
2023-02-02T12:42:55.449Z,98823.19
2023-02-02T12:45:36.600Z,98815.94
2023-02-02T12:48:34.387Z,98811.13
2023-02-02T12:51:20.438Z,98805.75
2023-02-02T12:54:33.014Z,98809.03
2023-02-02T12:57:07.632Z,98801.78
2023-02-02T12:59:56.572Z,98810.69
2023-02-02T13:02:39.347Z,98811.53
2023-02-02T13:05:09.506Z,98812.94
2023-02-02T13:07:41.674Z,98820.00
2023-02-02T13:10:15.456Z,98813.56
2023-02-02T13:12:49.313Z,98805.25
2023-02-02T13:15:24.155Z,98811.47
2023-02-02T13:18:00.865Z,98821.84
2023-02-02T13:20:43.072Z,98809.19
2023-02-02T13:23:29.327Z,98807.09
2023-02-02T13:26:07.768Z,98809.56
2023-02-02T13:28:58.313Z,98812.84
2023-02-02T13:31:56.774Z,98824.25
2023-02-02T13:34:38.979Z,98823.19
2023-02-02T13:37:37.649Z,98827.53
2023-02-02T13:40:20.470Z,98839.97
2023-02-02T13:43:26.271Z,98830.84
2023-02-02T13:46:19.221Z,98839.75
2023-02-02T13:48:59.141Z,98843.88
2023-02-02T13:51:51.434Z,98845.75
2023-02-02T13:54:57.276Z,98851.75
2023-02-02T13:57:53.227Z,98856.31
2023-02-02T14:00:23.448Z,98856.31
2023-02-02T14:02:55.794Z,98861.50
2023-02-02T14:05:36.136Z,98865.22
2023-02-02T14:08:17.204Z,98869.56
2023-02-02T14:11:07.243Z,98878.72
2023-02-02T14:14:06.690Z,98879.75
2023-02-02T14:16:35.617Z,98888.91
2023-02-02T14:19:16.306Z,98887.25
2023-02-02T14:21:43.623Z,98896.37
2023-02-02T14:24:26.459Z,98906.56
2023-02-02T14:27:04.157Z,98907.81
2023-02-02T14:29:31.792Z,98908.88
2023-02-02T14:32:29.645Z,98923.84
2023-02-02T14:35:28.080Z,98926.75
2023-02-02T14:38:33.563Z,98940.03
2023-02-02T14:41:44.371Z,98945.66
2023-02-02T14:44:11.466Z,98937.59
2023-02-02T14:46:42.326Z,98946.78
2023-02-02T14:49:19.229Z,98947.44
2023-02-02T14:51:53.753Z,98944.31
2023-02-02T14:54:43.977Z,98937.91
2023-02-02T14:57:23.055Z,98942.09
2023-02-02T14:59:52.449Z,98949.16
2023-02-02T15:02:22.036Z,98953.12
2023-02-02T15:04:50.553Z,98947.31
2023-02-02T15:07:23.501Z,98948.56
2023-02-02T15:09:56.757Z,98941.94
2023-02-02T15:12:44.965Z,98943.63
2023-02-02T15:15:30.507Z,98941.16
2023-02-02T15:18:08.102Z,98948.84
2023-02-02T15:20:50.406Z,98945.53
2023-02-02T15:23:40.358Z,98941.63
2023-02-02T15:26:25.271Z,98935.97
2023-02-02T15:28:59.562Z,98944.47
2023-02-02T15:31:39.989Z,98944.69
2023-02-02T15:34:24.855Z,98951.94
2023-02-02T15:37:01.173Z,98942.22
2023-02-02T15:39:31.299Z,98941.59
2023-02-02T15:42:20.791Z,98944.13
2023-02-02T15:44:48.025Z,98944.53
2023-02-02T15:47:20.134Z,98939.38
2023-02-02T15:49:47.317Z,98943.94
2023-02-02T15:52:20.922Z,98950.31
2023-02-02T15:54:57.053Z,98950.53
2023-02-02T15:57:31.083Z,98965.03
2023-02-02T16:00:00.176Z,98974.56
2023-02-02T16:02:41.637Z,98966.69
2023-02-02T16:05:31.728Z,98979.53
2023-02-02T16:08:07.528Z,98979.75
2023-02-02T16:10:35.918Z,98988.22
2023-02-02T16:13:03.608Z,98994.44
2023-02-02T16:15:34.067Z,99010.59
2023-02-02T16:18:04.718Z,99007.50
2023-02-02T16:20:36.585Z,99008.31
2023-02-02T16:23:11.516Z,99013.28
2023-02-02T16:25:47.095Z,99012.47
2023-02-02T16:28:18.593Z,99017.22
2023-02-02T16:30:46.018Z,99011.44
2023-02-02T16:33:39.236Z,99020.53
2023-02-02T16:36:26.489Z,99033.78
2023-02-02T16:38:55.197Z,99034.22
2023-02-02T16:41:37.003Z,99041.22
2023-02-02T16:44:39.233Z,99042.28
2023-02-02T16:47:26.459Z,99041.63
2023-02-02T16:50:09.249Z,99055.50
2023-02-02T16:52:54.529Z,99068.34
2023-02-02T16:55:22.748Z,99069.56
2023-02-02T16:57:51.095Z,99067.31
2023-02-02T17:00:24.592Z,99075.56
2023-02-02T17:03:00.794Z,99078.28
2023-02-02T17:05:38.307Z,99091.09
2023-02-02T17:08:08.277Z,99086.97
2023-02-02T17:10:40.277Z,99086.97
2023-02-02T17:13:43.583Z,99096.88
2023-02-02T17:16:16.583Z,99096.69
2023-02-02T17:18:44.782Z,99104.97
2023-02-02T17:21:19.882Z,99108.69
2023-02-02T17:23:54.456Z,99106.19
2023-02-02T17:26:23.109Z,99111.38
2023-02-02T17:28:55.369Z,99114.91
2023-02-02T17:31:24.880Z,99118.78
2023-02-02T17:33:52.866Z,99123.53
2023-02-02T17:36:20.837Z,99127.72
2023-02-02T17:38:49.030Z,99124.41
2023-02-02T17:41:17.128Z,99127.91
2023-02-02T17:43:45.224Z,99132.66
2023-02-02T17:46:15.698Z,99137.00
2023-02-02T17:48:43.716Z,99136.38
2023-02-02T17:51:20.655Z,99139.06
2023-02-02T17:53:48.079Z,99142.78
2023-02-02T17:56:16.757Z,99155.59
2023-02-02T17:58:44.343Z,99141.94
2023-02-02T18:01:13.387Z,99153.94
2023-02-02T18:03:45.336Z,99155.19
2023-02-02T18:06:15.681Z,99161.81
2023-02-02T18:08:43.325Z,99173.81
2023-02-02T18:11:15.857Z,99168.84
2023-02-02T18:13:44.754Z,99171.53
2023-02-02T18:16:13.313Z,99173.78
2023-02-02T18:18:40.665Z,99185.78
2023-02-02T18:21:11.204Z,99180.19
2023-02-02T18:23:38.772Z,99186.97
2023-02-02T18:26:14.930Z,99194.66
2023-02-02T18:28:43.091Z,99197.16
2023-02-02T18:31:13.224Z,99199.56
2023-02-02T18:33:42.126Z,99194.59
2023-02-02T18:36:18.189Z,99202.25
2023-02-02T18:38:47.109Z,99197.50
2023-02-02T18:41:17.349Z,99189.44
2023-02-02T18:43:45.941Z,99192.31
2023-02-02T18:46:16.793Z,99192.72
2023-02-02T18:48:45.266Z,99193.72
2023-02-02T18:51:18.328Z,99192.25
2023-02-02T18:53:48.724Z,99200.97
2023-02-02T18:56:20.240Z,99208.13
2023-02-02T18:58:48.832Z,99209.78
2023-02-02T19:01:18.889Z,99220.09
2023-02-02T19:03:56.532Z,99219.88
2023-02-02T19:06:44.052Z,99223.16
2023-02-02T19:09:17.637Z,99226.03
2023-02-02T19:11:48.676Z,99229.97
2023-02-02T19:14:20.531Z,99238.00
2023-02-02T19:16:52.690Z,99240.72
2023-02-02T19:19:33.904Z,99242.97
2023-02-02T19:22:20.888Z,99240.06
2023-02-02T19:24:56.147Z,99243.31
2023-02-02T19:27:41.552Z,99256.75
2023-02-02T19:30:23.431Z,99253.03
2023-02-02T19:32:57.438Z,99252.00
2023-02-02T19:35:29.616Z,99250.81
2023-02-02T19:38:03.509Z,99264.88
2023-02-02T19:40:34.529Z,99249.78
2023-02-02T19:43:18.890Z,99258.91
2023-02-02T19:45:47.352Z,99254.63
2023-02-02T19:48:21.200Z,99258.38
2023-02-02T19:50:49.324Z,99257.72
2023-02-02T19:53:23.527Z,99259.59
2023-02-02T19:55:54.826Z,99250.69
2023-02-02T19:58:26.341Z,99244.28
2023-02-02T20:00:56.523Z,99258.38
2023-02-02T20:03:29.413Z,99263.31
2023-02-02T20:05:57.963Z,99254.41
2023-02-02T20:08:32.350Z,99260.00
2023-02-02T20:11:06.810Z,99264.13
2023-02-02T20:13:42.652Z,99267.66
2023-02-02T20:16:22.384Z,99267.25
2023-02-02T20:18:55.962Z,99271.38
2023-02-02T20:21:38.588Z,99272.84
2023-02-02T20:24:42.938Z,99275.53
2023-02-02T20:27:23.983Z,99295.56
2023-02-02T20:29:54.369Z,99297.81
2023-02-02T20:32:27.040Z,99295.94
2023-02-02T20:34:59.134Z,99294.72
2023-02-02T20:37:32.204Z,99308.34
2023-02-02T20:40:02.512Z,99315.41
2023-02-02T20:42:32.275Z,99310.22
2023-02-02T20:45:00.688Z,99313.75
2023-02-02T20:47:28.636Z,99319.25
2023-02-02T20:50:00.830Z,99309.78
2023-02-02T20:52:31.407Z,99310.22
2023-02-02T20:54:59.470Z,99307.72
2023-02-02T20:57:27.335Z,99319.50
2023-02-02T20:59:57.834Z,99308.75
2023-02-02T21:02:26.581Z,99320.72
2023-02-02T21:04:54.646Z,99318.66
2023-02-02T21:07:22.290Z,99318.66
2023-02-02T21:09:51.771Z,99322.19
2023-02-02T21:12:22.644Z,99322.37
2023-02-02T21:14:52.189Z,99318.25
2023-02-02T21:17:19.579Z,99321.13
2023-02-02T21:19:47.372Z,99321.94
2023-02-02T21:22:15.233Z,99327.31
2023-02-02T21:24:43.085Z,99332.06
2023-02-02T21:27:10.542Z,99340.13
2023-02-02T21:29:38.499Z,99338.81
2023-02-02T21:32:06.817Z,99340.00
2023-02-02T21:34:34.265Z,99347.66
2023-02-02T21:37:01.797Z,99352.00
2023-02-02T21:39:35.839Z,99350.53
2023-02-02T21:42:13.395Z,99362.69
2023-02-02T21:44:47.111Z,99361.72
2023-02-02T21:47:34.297Z,99369.97
2023-02-02T21:50:29.700Z,99368.50
2023-02-02T21:53:10.057Z,99378.34
2023-02-02T21:55:39.388Z,99371.13
2023-02-02T21:58:33.097Z,99375.22
2023-02-02T22:01:18.608Z,99389.22
2023-02-02T22:03:46.915Z,99391.41
2023-02-02T22:06:24.345Z,99386.81
2023-02-02T22:08:53.726Z,99393.59
2023-02-02T22:11:29.644Z,99394.22
2023-02-02T22:14:19.058Z,99388.84
2023-02-02T22:16:53.338Z,99400.22
2023-02-02T22:19:38.101Z,99402.72
2023-02-02T22:22:16.169Z,99403.38
2023-02-02T22:24:45.678Z,99412.00
2023-02-02T22:27:20.116Z,99416.72
2023-02-02T22:29:47.823Z,99421.25
2023-02-02T22:32:14.833Z,99425.06
2023-02-02T22:34:42.093Z,99421.81
2023-02-02T22:37:09.417Z,99424.63
2023-02-02T22:39:38.741Z,99423.34
2023-02-02T22:42:06.214Z,99436.00
2023-02-02T22:44:33.431Z,99437.37
2023-02-02T22:47:00.934Z,99439.06
2023-02-02T22:49:28.533Z,99440.25
2023-02-02T22:51:55.812Z,99441.47
2023-02-02T22:54:22.711Z,99441.81
2023-02-02T22:56:50.307Z,99448.88
2023-02-02T22:59:17.214Z,99433.94
2023-02-02T23:01:44.168Z,99446.34
2023-02-02T23:04:12.001Z,99445.88
2023-02-02T23:06:39.024Z,99441.91
2023-02-02T23:09:06.251Z,99447.81
2023-02-02T23:11:33.528Z,99442.66
2023-02-02T23:14:00.740Z,99438.69
2023-02-02T23:16:27.699Z,99441.72
2023-02-02T23:18:54.977Z,99444.41
2023-02-02T23:21:22.320Z,99446.44
2023-02-02T23:23:49.700Z,99445.94
2023-02-02T23:26:17.343Z,99448.81
2023-02-02T23:28:44.578Z,99447.97
2023-02-02T23:31:11.870Z,99452.16
2023-02-02T23:33:39.281Z,99451.03
2023-02-02T23:36:06.854Z,99444.00
2023-02-02T23:38:34.130Z,99451.03
2023-02-02T23:41:01.749Z,99452.06
2023-02-02T23:43:28.657Z,99452.50
2023-02-02T23:45:56.277Z,99457.41
2023-02-02T23:48:23.436Z,99463.78
2023-02-02T23:50:50.927Z,99474.69
2023-02-02T23:53:18.508Z,99472.03
2023-02-02T23:55:46.435Z,99466.38
2023-02-02T23:58:13.976Z,99481.81
